Terminal Aerodrome Forecast
Issued by NWS

Home | Current Version | Previous Version | Text Only | Print | Product List | Glossary On
Versions: 1 2 3 4 5 6 7 8 9 10 11 12
000
FTUS45 KRIW 010526
TAFLND
TAF
KLND 010526Z 0106/0206 VRB06KT P6SM FEW110
     FM012200 21008G15KT P6SM VCSH SCT080 BKN110
     FM020200 28007KT P6SM SCT100=

USA.gov is the U.S. government's official web portal to all federal, state and local government web resources and services.